Akron Canton Regional Airport Akron US
ICAO: KCAK
IATA: CAK
Category: Medium
Scheduled Services: Yes

Elevation: 1228 ft
TransAlt. 18000 ft.

Airport Communications:
APP/DEP:32.3
APP/DEP:118.6
ATIS:121.05
CLNC DEL:132.05
GND:121.7
ARNG OPS:41.1
CLEVELAND RDO:114.4
TWR:118.3
UNICOM:122.95

KCAK Zoom In..

If you have problems with the map follow the link
https://www.worldairports.se/pages/airport.php?
ICAO=KCAK

Runways:

(A) RW 01 length 7601 ft width 150 ft
ILS 109.50 / hdg 9

(B) RW 05 length 8204 ft width 150 ft
ILS 108.30 / hdg 54

(C) RW 19 length 7601 ft width 150 ft
ILS 109.50 / hdg 189

(D) RW 23 length 8204 ft width 150 ft
ILS 108.30 / hdg 234

Location; KCAK
Day. 18 / Time. 21.51 Zulu
* Altimeter: 30.14
* Temperature: 01° c. 33.8°f.
* Wind from: 300° Speed 05 kn.
Dewpoint: -03° c.
Visibility: 5 Statute Miles.
Clouds: Scattered 1800 ft.
Clouds: Overcast 2500 ft.
Conditions: Mist.

KCAK 182151Z 30005KT 5SM BR SCT018 OVC025 01/M03 A3014 RMK AO2 SLP217 T00111033 $


Wind From 300°
Speed 05 kn.

 
 
jpsmedia.com for Web Design worldairports.se 2019   terms of use